createdAt,value
2018-12-24T00:01:35.070Z,0.60
2018-12-24T00:04:05.961Z,1.20
2018-12-24T00:06:36.869Z,0.70
2018-12-24T00:09:07.761Z,0.60
2018-12-24T00:11:38.674Z,0.60
2018-12-24T00:14:09.582Z,0.60
2018-12-24T00:16:40.496Z,0.70
2018-12-24T00:19:11.389Z,0.60
2018-12-24T00:21:42.279Z,0.80
2018-12-24T00:24:13.163Z,0.60
2018-12-24T00:26:44.059Z,0.60
2018-12-24T00:29:15.078Z,0.80
2018-12-24T00:31:45.974Z,0.60
2018-12-24T00:34:16.906Z,1.47
2018-12-24T00:36:47.808Z,0.80
2018-12-24T00:39:18.704Z,1.73
2018-12-24T00:41:49.601Z,0.63
2018-12-24T00:44:20.506Z,0.63
2018-12-24T00:46:51.399Z,0.60
2018-12-24T00:49:22.355Z,0.60
2018-12-24T00:51:53.269Z,0.60
2018-12-24T00:54:24.182Z,0.60
2018-12-24T00:56:55.067Z,0.70
2018-12-24T00:59:25.984Z,0.70
2018-12-24T01:01:56.907Z,0.97
2018-12-24T01:04:27.811Z,1.03
2018-12-24T01:06:58.700Z,0.60
2018-12-24T01:09:29.593Z,0.90
2018-12-24T01:12:00.504Z,1.50
2018-12-24T01:14:31.412Z,0.60
2018-12-24T01:17:02.319Z,0.60
2018-12-24T01:19:34.021Z,0.80
2018-12-24T01:22:04.960Z,1.47
2018-12-24T01:24:35.867Z,0.60
2018-12-24T01:27:06.771Z,0.60
2018-12-24T01:29:37.662Z,0.70
2018-12-24T01:32:08.553Z,0.50
2018-12-24T01:34:39.447Z,0.70
2018-12-24T01:37:10.356Z,0.80
2018-12-24T01:39:41.268Z,0.60
2018-12-24T01:42:12.164Z,0.60
2018-12-24T01:44:43.055Z,0.80
2018-12-24T01:47:13.963Z,0.50
2018-12-24T01:49:44.849Z,0.60
2018-12-24T01:52:15.740Z,1.07
2018-12-24T01:54:46.636Z,0.57
2018-12-24T01:57:17.525Z,2.10
2018-12-24T01:59:48.438Z,3.57
2018-12-24T02:02:19.348Z,0.70
2018-12-24T02:04:50.242Z,0.77
2018-12-24T02:07:21.147Z,0.60
2018-12-24T02:09:52.047Z,1.43
2018-12-24T02:12:22.931Z,0.70
2018-12-24T02:14:53.927Z,1.00
2018-12-24T02:17:25.101Z,0.60
2018-12-24T02:19:55.987Z,1.35
2018-12-24T02:22:26.899Z,0.60
2018-12-24T02:24:57.781Z,0.60
2018-12-24T02:27:28.667Z,0.90
2018-12-24T02:29:59.556Z,0.50
2018-12-24T02:32:30.447Z,1.47
2018-12-24T02:35:01.329Z,0.50
2018-12-24T02:37:32.253Z,0.50
2018-12-24T02:40:03.967Z,0.60
2018-12-24T02:42:34.866Z,0.68
2018-12-24T02:45:05.731Z,1.47
2018-12-24T02:47:36.641Z,0.60
2018-12-24T02:50:07.534Z,0.80
2018-12-24T02:52:38.469Z,0.60
2018-12-24T02:55:09.372Z,0.80
2018-12-24T02:57:40.283Z,0.50
2018-12-24T03:00:11.261Z,0.70
2018-12-24T03:02:42.155Z,0.60
2018-12-24T03:05:13.041Z,0.60
2018-12-24T03:07:43.967Z,0.50
2018-12-24T03:10:14.841Z,0.50
2018-12-24T03:12:45.751Z,0.50
2018-12-24T03:15:17.745Z,0.60
2018-12-24T03:17:48.640Z,0.50
2018-12-24T03:20:19.535Z,0.50
2018-12-24T03:22:50.428Z,0.60
2018-12-24T03:25:21.319Z,0.60
2018-12-24T03:27:52.212Z,0.50
2018-12-24T03:30:23.097Z,0.50
2018-12-24T03:32:54.013Z,0.50
2018-12-24T03:35:24.895Z,0.50
2018-12-24T03:37:55.775Z,0.60
2018-12-24T03:40:27.056Z,0.50
2018-12-24T03:42:57.951Z,0.60
2018-12-24T03:45:28.852Z,0.70
2018-12-24T03:47:59.740Z,0.50
2018-12-24T03:50:30.633Z,0.63
2018-12-24T03:53:01.522Z,0.83
2018-12-24T03:55:32.411Z,0.70
2018-12-24T03:58:03.314Z,0.97
2018-12-24T04:00:34.187Z,0.60
2018-12-24T04:03:05.074Z,0.50
2018-12-24T04:05:35.965Z,0.57
2018-12-24T04:08:06.848Z,0.60
2018-12-24T04:10:37.739Z,0.60
2018-12-24T04:13:08.640Z,0.60
2018-12-24T04:15:39.528Z,0.50
2018-12-24T04:18:10.440Z,0.50
2018-12-24T04:20:41.319Z,0.80
2018-12-24T04:23:12.224Z,0.60
2018-12-24T04:25:43.102Z,0.87
2018-12-24T04:28:14.014Z,0.60
2018-12-24T04:30:44.888Z,0.50
2018-12-24T04:33:15.794Z,0.60
2018-12-24T04:35:46.680Z,0.60
2018-12-24T04:38:17.568Z,0.50
2018-12-24T04:40:48.451Z,0.50
2018-12-24T04:43:19.358Z,0.53
2018-12-24T04:45:50.246Z,0.50
2018-12-24T04:48:21.129Z,0.50
2018-12-24T04:50:52.004Z,0.70
2018-12-24T04:53:22.903Z,0.70
2018-12-24T04:55:53.795Z,0.80
2018-12-24T04:58:24.692Z,0.60
2018-12-24T05:00:55.606Z,0.50
2018-12-24T05:03:26.480Z,0.60
2018-12-24T05:05:57.379Z,0.80
2018-12-24T05:08:28.509Z,0.70
2018-12-24T05:10:59.675Z,0.72
2018-12-24T05:13:30.564Z,0.60
2018-12-24T05:16:01.488Z,0.60
2018-12-24T05:18:32.381Z,0.60
2018-12-24T05:21:03.272Z,0.60
2018-12-24T05:23:34.156Z,0.70
2018-12-24T05:26:05.043Z,0.50
2018-12-24T05:28:36.706Z,0.60
2018-12-24T05:31:07.551Z,0.50
2018-12-24T05:33:38.513Z,0.50
2018-12-24T05:36:09.407Z,0.50
2018-12-24T05:38:40.282Z,0.70
2018-12-24T05:41:11.187Z,0.70
2018-12-24T05:43:49.258Z,0.50
2018-12-24T05:46:14.883Z,0.50
2018-12-24T05:48:45.785Z,0.50
2018-12-24T05:51:16.747Z,0.80
2018-12-24T05:53:47.641Z,0.50
2018-12-24T05:56:18.523Z,0.80
2018-12-24T05:58:49.399Z,0.60
2018-12-24T06:01:20.305Z,0.50
2018-12-24T06:03:51.293Z,0.50
2018-12-24T06:06:22.212Z,0.70
2018-12-24T06:08:53.100Z,0.50
2018-12-24T06:11:23.986Z,0.57
2018-12-24T06:13:58.035Z,0.50
2018-12-24T06:16:27.676Z,0.60
2018-12-24T06:18:58.563Z,0.50
2018-12-24T06:21:29.449Z,0.60
2018-12-24T06:24:00.686Z,0.70
2018-12-24T06:26:31.585Z,1.45
2018-12-24T06:29:02.470Z,0.60
2018-12-24T06:31:33.360Z,0.50
2018-12-24T06:34:04.259Z,0.60
2018-12-24T06:36:35.169Z,0.50
2018-12-24T06:39:06.057Z,0.63
2018-12-24T06:41:36.943Z,0.50
2018-12-24T06:44:07.901Z,0.50
2018-12-24T06:46:38.790Z,0.60
2018-12-24T06:49:09.756Z,4.60
2018-12-24T06:51:40.655Z,0.50
2018-12-24T06:54:11.550Z,1.43
2018-12-24T06:56:42.499Z,0.60
2018-12-24T06:59:13.398Z,0.60
2018-12-24T07:01:44.381Z,0.50
2018-12-24T07:04:15.296Z,0.70
2018-12-24T07:06:46.418Z,0.70
2018-12-24T07:09:17.308Z,0.70
2018-12-24T07:11:48.246Z,0.60
2018-12-24T07:14:19.128Z,0.60
2018-12-24T07:16:50.050Z,0.60
2018-12-24T07:19:20.920Z,0.60
2018-12-24T07:21:51.886Z,0.60
2018-12-24T07:24:22.795Z,0.60
2018-12-24T07:26:53.696Z,0.67
2018-12-24T07:29:24.577Z,0.83
2018-12-24T07:31:55.481Z,0.60
2018-12-24T07:34:32.429Z,0.67
2018-12-24T07:36:59.284Z,0.80
2018-12-24T07:39:30.173Z,1.30
2018-12-24T07:42:01.046Z,0.80
2018-12-24T07:44:31.971Z,0.87
2018-12-24T07:47:02.866Z,1.73
2018-12-24T07:49:33.770Z,0.70
2018-12-24T07:52:04.661Z,0.60
2018-12-24T07:54:35.600Z,1.57
2018-12-24T07:57:06.483Z,0.80
2018-12-24T07:59:37.369Z,0.67
2018-12-24T08:02:08.251Z,0.60
2018-12-24T08:04:39.146Z,1.30
2018-12-24T08:07:10.035Z,0.70
2018-12-24T08:09:40.929Z,0.67
2018-12-24T08:12:12.888Z,0.77
2018-12-24T08:14:43.822Z,0.80
2018-12-24T08:17:14.747Z,0.70
2018-12-24T08:19:45.640Z,0.63
2018-12-24T08:22:16.519Z,0.70
2018-12-24T08:24:47.414Z,0.80
2018-12-24T08:27:18.297Z,1.00
2018-12-24T08:29:49.187Z,2.20
2018-12-24T08:32:20.072Z,0.60
2018-12-24T08:34:50.966Z,0.50
2018-12-24T08:37:21.860Z,1.40
2018-12-24T08:39:52.774Z,0.70
2018-12-24T08:42:23.665Z,0.57
2018-12-24T08:44:54.569Z,0.67
2018-12-24T08:47:25.452Z,0.60
2018-12-24T08:49:56.348Z,0.60
2018-12-24T08:52:27.243Z,0.70
2018-12-24T08:54:58.128Z,0.63
2018-12-24T08:57:29.004Z,0.77
2018-12-24T08:59:59.907Z,0.50
2018-12-24T09:02:30.807Z,0.60
2018-12-24T09:05:01.692Z,0.60
2018-12-24T09:07:32.599Z,0.60
2018-12-24T09:10:05.394Z,0.60
2018-12-24T09:12:36.282Z,0.50
2018-12-24T09:15:07.588Z,0.60
2018-12-24T09:17:38.492Z,0.60
2018-12-24T09:20:09.388Z,0.60
2018-12-24T09:22:40.273Z,0.60
2018-12-24T09:25:11.162Z,0.60
2018-12-24T09:27:42.054Z,0.60
2018-12-24T09:30:13.043Z,0.70
2018-12-24T09:32:43.918Z,0.83
2018-12-24T09:35:15.841Z,0.60
2018-12-24T09:37:46.735Z,3.25
2018-12-24T09:40:17.625Z,0.70
2018-12-24T09:42:48.516Z,0.70
2018-12-24T09:45:19.400Z,0.80
2018-12-24T09:47:50.329Z,1.10
2018-12-24T09:50:21.261Z,0.60
2018-12-24T09:52:52.162Z,1.40
2018-12-24T09:55:23.065Z,0.67
2018-12-24T09:57:53.953Z,0.60
2018-12-24T10:00:24.858Z,0.70
2018-12-24T10:02:58.256Z,0.70
2018-12-24T10:05:29.144Z,1.00
2018-12-24T10:08:03.833Z,0.70
2018-12-24T10:10:34.732Z,0.60
2018-12-24T10:13:05.629Z,0.60
2018-12-24T10:15:36.528Z,0.60
2018-12-24T10:18:07.440Z,0.57
2018-12-24T10:20:38.341Z,0.77
2018-12-24T10:23:09.244Z,0.60
2018-12-24T10:25:40.240Z,0.83
2018-12-24T10:28:11.173Z,0.80
2018-12-24T10:30:42.078Z,0.60
2018-12-24T10:33:12.962Z,0.90
2018-12-24T10:35:43.865Z,0.90
2018-12-24T10:38:14.731Z,2.50
2018-12-24T10:40:48.531Z,0.67
2018-12-24T10:43:19.434Z,0.70
2018-12-24T10:45:50.330Z,0.60
2018-12-24T10:48:21.234Z,0.67
2018-12-24T10:50:52.128Z,0.67
2018-12-24T10:53:23.013Z,0.60
2018-12-24T10:55:53.903Z,0.70
2018-12-24T10:58:24.810Z,3.67
2018-12-24T11:00:55.693Z,0.77
2018-12-24T11:03:26.587Z,0.63
2018-12-24T11:05:57.817Z,0.70
2018-12-24T11:08:28.784Z,0.70
2018-12-24T11:10:59.743Z,0.80
2018-12-24T11:13:30.633Z,0.90
2018-12-24T11:16:01.545Z,0.80
2018-12-24T11:18:33.437Z,1.20
2018-12-24T11:21:04.332Z,1.30
2018-12-24T11:23:35.328Z,0.80
2018-12-24T11:26:07.268Z,0.70
2018-12-24T11:28:38.173Z,1.00
2018-12-24T11:31:10.075Z,1.03
2018-12-24T11:33:40.984Z,0.90
2018-12-24T11:36:11.864Z,0.80
2018-12-24T11:38:42.778Z,0.93
2018-12-24T11:41:13.686Z,0.70
2018-12-24T11:43:44.590Z,0.80
2018-12-24T11:46:16.531Z,1.43
2018-12-24T11:48:47.437Z,0.70
2018-12-24T11:51:18.334Z,1.00
2018-12-24T11:53:49.250Z,0.63
2018-12-24T11:56:20.135Z,0.60
2018-12-24T11:58:51.019Z,0.70
2018-12-24T12:01:21.908Z,0.70
2018-12-24T12:03:52.795Z,0.70
2018-12-24T12:06:23.686Z,0.80
2018-12-24T12:08:54.570Z,0.73
2018-12-24T12:11:25.458Z,1.33
2018-12-24T12:13:56.364Z,1.27
2018-12-24T12:16:27.263Z,0.70
2018-12-24T12:18:58.214Z,0.77
2018-12-24T12:21:29.158Z,0.60
2018-12-24T12:24:00.063Z,0.90
2018-12-24T12:26:30.960Z,0.70
2018-12-24T12:29:02.901Z,1.57
2018-12-24T12:31:33.802Z,0.80
2018-12-24T12:34:04.711Z,2.40
2018-12-24T12:36:35.616Z,0.90
2018-12-24T12:39:06.605Z,0.80
2018-12-24T12:41:37.517Z,0.82
2018-12-24T12:44:08.417Z,1.73
2018-12-24T12:46:39.317Z,0.63
2018-12-24T12:49:10.224Z,1.00
2018-12-24T12:51:41.112Z,1.07
2018-12-24T12:54:11.995Z,0.80
2018-12-24T12:56:42.884Z,0.80
2018-12-24T12:59:13.786Z,0.70
2018-12-24T13:01:44.669Z,1.00
2018-12-24T13:04:16.653Z,1.30
2018-12-24T13:06:47.548Z,0.80
2018-12-24T13:09:18.434Z,1.57
2018-12-24T13:11:49.325Z,1.30
2018-12-24T13:14:20.228Z,1.07
2018-12-24T13:16:52.186Z,1.73
2018-12-24T13:19:23.702Z,1.02
2018-12-24T13:21:54.697Z,1.30
2018-12-24T13:24:25.592Z,0.80
2018-12-24T13:26:56.486Z,0.80
2018-12-24T13:29:27.449Z,0.80
2018-12-24T13:31:59.430Z,0.70
2018-12-24T13:35:03.866Z,0.70
2018-12-24T13:37:34.623Z,0.70
2018-12-24T13:40:05.391Z,0.60
2018-12-24T13:42:36.146Z,0.70
2018-12-24T13:45:08.017Z,0.60
2018-12-24T13:47:38.766Z,0.60
2018-12-24T13:50:09.535Z,3.63
2018-12-24T13:52:40.292Z,0.80
2018-12-24T13:55:11.063Z,3.07
2018-12-24T13:57:41.836Z,0.70
2018-12-24T14:00:13.263Z,0.90
2018-12-24T14:02:44.068Z,0.82
2018-12-24T14:05:14.858Z,1.73
2018-12-24T14:07:45.617Z,1.00
2018-12-24T14:10:16.398Z,0.97
2018-12-24T14:12:48.167Z,1.07
2018-12-24T14:15:18.949Z,0.90
2018-12-24T14:17:49.718Z,1.00
2018-12-24T14:20:20.499Z,1.77
2018-12-24T14:22:51.259Z,0.80
2018-12-24T14:25:22.045Z,0.80
2018-12-24T14:27:52.804Z,1.10
2018-12-24T14:30:23.575Z,1.07
2018-12-24T14:32:54.363Z,1.07
2018-12-24T14:35:25.122Z,1.30
2018-12-24T14:37:55.879Z,0.80
2018-12-24T14:40:26.647Z,0.80
2018-12-24T14:42:57.413Z,1.23
2018-12-24T14:45:28.185Z,1.07
2018-12-24T14:47:58.939Z,1.00
2018-12-24T14:50:29.716Z,0.70
2018-12-24T14:53:00.474Z,0.67
2018-12-24T14:55:31.238Z,0.97
2018-12-24T14:58:02.011Z,2.40
2018-12-24T15:00:32.775Z,1.30
2018-12-24T15:03:03.540Z,0.77
2018-12-24T15:05:34.324Z,0.93
2018-12-24T15:08:05.090Z,0.97
2018-12-24T15:10:35.872Z,0.80
2018-12-24T15:13:06.629Z,0.60
2018-12-24T15:15:37.407Z,0.93
2018-12-24T15:18:08.179Z,0.70
2018-12-24T15:20:38.951Z,0.70
2018-12-24T15:23:09.720Z,0.80
2018-12-24T15:25:40.503Z,0.70
2018-12-24T15:28:11.271Z,0.80
2018-12-24T15:30:42.041Z,1.00
2018-12-24T15:33:12.798Z,0.90
2018-12-24T15:35:43.564Z,1.13
2018-12-24T15:38:14.322Z,0.80
2018-12-24T15:40:45.111Z,1.07
2018-12-24T15:43:15.883Z,0.83
2018-12-24T15:45:46.646Z,1.03
2018-12-24T15:48:17.403Z,0.90
2018-12-24T15:50:48.179Z,0.93
2018-12-24T15:53:19.000Z,1.00
2018-12-24T15:55:49.821Z,0.70
2018-12-24T15:58:20.920Z,0.70
2018-12-24T16:00:51.702Z,1.20
2018-12-24T16:03:22.469Z,0.90
2018-12-24T16:05:53.259Z,1.60
2018-12-24T16:08:24.018Z,0.70
2018-12-24T16:10:54.801Z,0.90
2018-12-24T16:13:25.573Z,0.83
2018-12-24T16:15:56.361Z,1.10
2018-12-24T16:18:27.136Z,1.03
2018-12-24T16:20:57.892Z,0.77
2018-12-24T16:23:28.654Z,0.83
2018-12-24T16:25:59.444Z,1.23
2018-12-24T16:28:30.210Z,0.60
2018-12-24T16:31:00.973Z,0.70
2018-12-24T16:33:31.731Z,0.93
2018-12-24T16:36:02.516Z,1.20
2018-12-24T16:38:33.301Z,0.90
2018-12-24T16:41:04.098Z,0.87
2018-12-24T16:43:34.843Z,1.33
2018-12-24T16:46:05.629Z,0.90
2018-12-24T16:48:36.497Z,2.00
2018-12-24T16:51:07.274Z,1.70
2018-12-24T16:53:40.579Z,1.30
2018-12-24T16:56:10.729Z,1.22
2018-12-24T16:58:41.491Z,1.20
2018-12-24T17:01:12.276Z,1.27
2018-12-24T17:03:43.034Z,1.20
2018-12-24T17:06:13.787Z,1.00
2018-12-24T17:08:44.565Z,1.13
2018-12-24T17:11:15.319Z,1.10
2018-12-24T17:13:46.098Z,1.30
2018-12-24T17:16:16.927Z,1.10
2018-12-24T17:18:47.684Z,1.30
2018-12-24T17:21:18.460Z,1.33
2018-12-24T17:23:49.228Z,1.40
2018-12-24T17:26:19.997Z,1.80
2018-12-24T17:28:50.767Z,1.47
2018-12-24T17:31:21.543Z,1.73
2018-12-24T17:33:52.313Z,1.10
2018-12-24T17:36:23.071Z,1.40
2018-12-24T17:38:53.850Z,1.30
2018-12-24T17:41:24.616Z,1.27
2018-12-24T17:43:55.386Z,1.67
2018-12-24T17:46:26.482Z,1.43
2018-12-24T17:48:57.269Z,1.52
2018-12-24T17:51:28.076Z,1.07
2018-12-24T17:53:58.809Z,1.27
2018-12-24T17:56:29.561Z,1.10
2018-12-24T17:59:00.329Z,1.43
2018-12-24T18:01:31.093Z,2.10
2018-12-24T18:04:01.859Z,1.20
2018-12-24T18:06:32.620Z,1.93
2018-12-24T18:09:04.599Z,1.53
2018-12-24T18:11:35.762Z,1.00
2018-12-24T18:14:06.548Z,1.42
2018-12-24T18:16:37.341Z,1.33
2018-12-24T18:19:08.129Z,3.03
2018-12-24T18:21:38.893Z,1.87
2018-12-24T18:24:09.661Z,1.30
2018-12-24T18:26:40.426Z,1.53
2018-12-24T18:29:11.173Z,3.07
2018-12-24T18:31:41.948Z,2.47
2018-12-24T18:34:12.727Z,4.90
2018-12-24T18:36:43.507Z,3.43
2018-12-24T18:39:14.400Z,2.80
2018-12-24T18:41:45.187Z,3.10
2018-12-24T18:44:15.944Z,2.50
2018-12-24T18:46:46.709Z,4.77
2018-12-24T18:49:17.461Z,3.17
2018-12-24T18:51:48.230Z,3.43
2018-12-24T18:54:18.981Z,3.40
2018-12-24T18:56:49.742Z,3.63
2018-12-24T18:59:20.501Z,3.63
2018-12-24T19:01:51.319Z,2.83
2018-12-24T19:04:22.085Z,3.33
2018-12-24T19:06:52.887Z,4.40
2018-12-24T19:09:23.667Z,2.90
2018-12-24T19:11:54.437Z,3.27
2018-12-24T19:14:25.202Z,3.60
2018-12-24T19:16:55.985Z,3.60
2018-12-24T19:19:26.732Z,3.27
2018-12-24T19:21:57.534Z,3.93
2018-12-24T19:24:28.314Z,4.93
2018-12-24T19:26:59.077Z,3.80
2018-12-24T19:29:29.831Z,4.20
2018-12-24T19:32:00.640Z,5.40
2018-12-24T19:34:31.405Z,4.50
2018-12-24T19:37:02.180Z,3.77
2018-12-24T19:39:32.937Z,7.50
2018-12-24T19:42:03.701Z,4.60
2018-12-24T19:44:34.479Z,4.90
2018-12-24T19:47:05.243Z,5.10
2018-12-24T19:49:35.992Z,5.57
2018-12-24T19:52:06.759Z,4.07
2018-12-24T19:54:37.527Z,4.33
2018-12-24T19:57:08.635Z,3.67
2018-12-24T19:59:39.404Z,4.85
2018-12-24T20:02:10.182Z,4.43
2018-12-24T20:04:40.943Z,5.67
2018-12-24T20:07:11.724Z,4.83
2018-12-24T20:09:43.523Z,5.53
2018-12-24T20:12:14.297Z,5.60
2018-12-24T20:14:45.063Z,7.50
2018-12-24T20:17:15.852Z,5.03
2018-12-24T20:19:46.608Z,5.17
2018-12-24T20:22:17.388Z,5.40
2018-12-24T20:24:48.154Z,6.00
2018-12-24T20:27:18.929Z,4.50
2018-12-24T20:29:49.683Z,6.43
2018-12-24T20:32:20.459Z,4.40
2018-12-24T20:34:51.223Z,4.57
2018-12-24T20:37:22.014Z,3.97
2018-12-24T20:39:52.778Z,4.03
2018-12-24T20:42:23.548Z,3.93
2018-12-24T20:44:54.347Z,3.70
2018-12-24T20:47:25.121Z,3.40
2018-12-24T20:49:55.886Z,4.23
2018-12-24T20:52:26.664Z,3.40
2018-12-24T20:54:57.428Z,2.90
2018-12-24T20:57:28.202Z,3.10
2018-12-24T20:59:58.996Z,3.70
2018-12-24T21:02:29.780Z,3.57
2018-12-24T21:05:00.535Z,2.77
2018-12-24T21:07:31.450Z,2.87
2018-12-24T21:10:03.517Z,3.30
2018-12-24T21:12:34.321Z,3.62
2018-12-24T21:15:05.100Z,3.23
2018-12-24T21:17:35.868Z,3.00
2018-12-24T21:20:06.624Z,2.80
2018-12-24T21:22:37.412Z,3.27
2018-12-24T21:25:08.172Z,3.37
2018-12-24T21:27:38.936Z,2.77
2018-12-24T21:30:09.721Z,4.13
2018-12-24T21:32:40.484Z,2.73
2018-12-24T21:35:11.260Z,2.60
2018-12-24T21:37:42.036Z,2.60
2018-12-24T21:40:12.793Z,3.30
2018-12-24T21:42:43.559Z,2.67
2018-12-24T21:45:14.329Z,2.30
2018-12-24T21:47:45.103Z,5.03
2018-12-24T21:50:15.888Z,1.93
2018-12-24T21:52:46.666Z,1.87
2018-12-24T21:55:17.425Z,2.50
2018-12-24T21:57:48.215Z,2.10
2018-12-24T22:00:18.980Z,2.10
2018-12-24T22:02:49.760Z,2.20
2018-12-24T22:05:20.518Z,2.60
2018-12-24T22:07:51.284Z,1.80
2018-12-24T22:10:22.065Z,1.80
2018-12-24T22:12:52.821Z,1.97
2018-12-24T22:15:23.622Z,1.60
2018-12-24T22:17:54.398Z,2.10
2018-12-24T22:20:25.183Z,1.57
2018-12-24T22:22:55.964Z,2.13
2018-12-24T22:25:26.728Z,1.77
2018-12-24T22:27:57.483Z,1.70
2018-12-24T22:30:28.256Z,1.60
2018-12-24T22:32:59.013Z,1.60
2018-12-24T22:35:29.794Z,1.60
2018-12-24T22:38:00.565Z,2.43
2018-12-24T22:40:31.330Z,2.43
2018-12-24T22:43:02.101Z,1.93
2018-12-24T22:45:32.874Z,1.90
2018-12-24T22:48:03.630Z,1.83
2018-12-24T22:50:34.400Z,2.60
2018-12-24T22:53:05.169Z,3.10
2018-12-24T22:55:35.935Z,2.13
2018-12-24T22:58:06.685Z,2.20
2018-12-24T23:00:42.626Z,1.80
2018-12-24T23:03:13.423Z,2.05
2018-12-24T23:05:44.203Z,2.20
2018-12-24T23:08:14.953Z,2.30
2018-12-24T23:10:45.729Z,2.10
2018-12-24T23:13:16.494Z,2.00
2018-12-24T23:15:47.272Z,1.90
2018-12-24T23:18:18.046Z,2.20
2018-12-24T23:20:48.812Z,2.17
2018-12-24T23:23:19.603Z,2.00
2018-12-24T23:25:50.380Z,1.90
2018-12-24T23:28:21.162Z,1.70
2018-12-24T23:30:51.921Z,1.63
2018-12-24T23:33:22.671Z,2.23
2018-12-24T23:35:53.448Z,2.00
2018-12-24T23:38:24.211Z,2.53
2018-12-24T23:40:54.983Z,2.10
2018-12-24T23:43:25.754Z,2.70
2018-12-24T23:45:56.537Z,1.40
2018-12-24T23:48:27.301Z,1.80
2018-12-24T23:50:58.088Z,1.90
2018-12-24T23:53:28.839Z,1.70
2018-12-24T23:55:59.608Z,2.20
2018-12-24T23:58:30.368Z,1.83
